Time;durP1;ratioP1;P1;durP2;ratioP2;P2;SDS_P1;SDS_P2;PMS_P1;PMS_P2;Temp;Humidity;BMP_temperature;BMP_pressure;BME280_temperature;BME280_humidity;BME280_pressure;Samples;Min_cycle;Max_cycle;Signal;HPM_P1;HPM_P2
2022/10/06 00:00:31;;;;;;;1.60;1.10;;;;;;;;;;5074318;28;20468;-75
2022/10/06 00:02:57;;;;;;;1.73;1.63;;;;;;;;;;5106298;28;20464;-75
2022/10/06 00:05:23;;;;;;;0.70;0.70;;;;;;;;;;5092957;28;20396;-76
2022/10/06 00:07:50;;;;;;;0.80;0.80;;;;;;;;;;5071372;28;20436;-75
2022/10/06 00:10:16;;;;;;;2.00;1.47;;;;;;;;;;5086883;28;20440;-75
2022/10/06 00:12:43;;;;;;;2.57;0.87;;;;;;;;;;5071000;28;20988;-75
2022/10/06 00:15:10;;;;;;;0.60;0.40;;;;;;;;;;5087033;28;20813;-75
2022/10/06 00:17:36;;;;;;;0.60;0.60;;;;;;;;;;5070323;28;20476;-74
2022/10/06 00:20:02;;;;;;;1.10;0.50;;;;;;;;;;5086801;28;20463;-75
2022/10/06 00:22:35;;;;;;;1.20;0.80;;;;;;;;;;5066967;28;20973;-74
2022/10/06 00:25:01;;;;;;;1.07;0.97;;;;;;;;;;5085212;28;20473;-76
2022/10/06 00:27:32;;;;;;;0.50;0.50;;;;;;;;;;5066738;28;20466;-75
2022/10/06 00:29:58;;;;;;;0.60;0.60;;;;;;;;;;5086712;28;20526;-75
2022/10/06 00:32:25;;;;;;;2.37;0.50;;;;;;;;;;5069248;28;20531;-75
2022/10/06 00:34:52;;;;;;;2.20;0.60;;;;;;;;;;5068279;28;20436;-74
2022/10/06 00:37:18;;;;;;;1.23;0.93;;;;;;;;;;5070293;28;20795;-74
2022/10/06 00:39:44;;;;;;;3.03;0.67;;;;;;;;;;5074764;28;20482;-74
2022/10/06 00:42:21;;;;;;;0.60;0.60;;;;;;;;;;5066626;28;20804;-75
2022/10/06 00:44:48;;;;;;;0.90;0.87;;;;;;;;;;5063561;28;20915;-75
2022/10/06 00:47:14;;;;;;;1.10;0.70;;;;;;;;;;5083695;28;20432;-75
2022/10/06 00:49:41;;;;;;;0.80;0.77;;;;;;;;;;5065143;28;21100;-75
2022/10/06 00:52:08;;;;;;;0.80;0.60;;;;;;;;;;5084016;28;20503;-74
2022/10/06 00:54:35;;;;;;;2.27;1.20;;;;;;;;;;5064951;28;20444;-75
2022/10/06 00:57:02;;;;;;;1.70;0.80;;;;;;;;;;5083652;28;20424;-74
2022/10/06 00:59:28;;;;;;;4.67;1.00;;;;;;;;;;5064601;28;20521;-75
2022/10/06 01:02:03;;;;;;;4.60;0.87;;;;;;;;;;5085510;28;20466;-74
2022/10/06 01:04:36;;;;;;;1.23;1.10;;;;;;;;;;5064536;28;20420;-75
2022/10/06 01:07:02;;;;;;;1.30;0.80;;;;;;;;;;5083523;28;20424;-73
2022/10/06 01:09:29;;;;;;;6.33;1.10;;;;;;;;;;5063589;28;21150;-76
2022/10/06 01:11:57;;;;;;;0.77;0.77;;;;;;;;;;5085515;28;20519;-75
2022/10/06 01:14:25;;;;;;;2.50;0.67;;;;;;;;;;5066362;28;20444;-75
2022/10/06 01:16:54;;;;;;;1.23;0.67;;;;;;;;;;5085948;28;20428;-74
2022/10/06 01:19:29;;;;;;;1.07;1.07;;;;;;;;;;5081834;28;20472;-76
2022/10/06 01:21:56;;;;;;;2.50;0.93;;;;;;;;;;5066194;28;20420;-76
2022/10/06 01:24:22;;;;;;;1.17;0.83;;;;;;;;;;5066752;28;20991;-75
2022/10/06 01:26:50;;;;;;;1.40;1.30;;;;;;;;;;5085440;28;20427;-76
2022/10/06 01:29:16;;;;;;;1.60;1.20;;;;;;;;;;5080960;28;20460;-75
2022/10/06 01:31:42;;;;;;;1.60;1.20;;;;;;;;;;5066146;28;20565;-75
2022/10/06 01:34:09;;;;;;;0.90;0.90;;;;;;;;;;5068928;28;20433;-74
2022/10/06 01:36:35;;;;;;;1.40;1.40;;;;;;;;;;5085494;28;20420;-76
2022/10/06 01:39:01;;;;;;;2.83;1.57;;;;;;;;;;5070441;28;20992;-76
2022/10/06 01:41:27;;;;;;;3.67;1.60;;;;;;;;;;5085614;28;20515;-76
2022/10/06 01:43:53;;;;;;;5.73;1.30;;;;;;;;;;5077168;28;20428;-75
2022/10/06 01:46:20;;;;;;;3.67;1.20;;;;;;;;;;5061046;28;20432;-75
2022/10/06 01:48:45;;;;;;;3.57;1.33;;;;;;;;;;5081602;28;20523;-75
2022/10/06 01:51:15;;;;;;;1.47;1.27;;;;;;;;;;5065959;28;21100;-75
2022/10/06 01:53:41;;;;;;;1.40;1.30;;;;;;;;;;5081478;28;20436;-75
2022/10/06 01:56:07;;;;;;;2.83;2.00;;;;;;;;;;5065928;28;20504;-75
2022/10/06 01:58:33;;;;;;;2.30;1.03;;;;;;;;;;5081135;28;20804;-77
2022/10/06 02:01:03;;;;;;;1.03;1.03;;;;;;;;;;5086078;28;20408;-75
2022/10/06 02:03:29;;;;;;;3.70;1.43;;;;;;;;;;5088031;28;20700;-75
2022/10/06 02:05:56;;;;;;;2.87;1.50;;;;;;;;;;5106491;28;20435;-75
2022/10/06 02:08:22;;;;;;;2.50;2.40;;;;;;;;;;5072018;28;20446;-75
2022/10/06 02:10:48;;;;;;;3.10;1.30;;;;;;;;;;5085493;28;20889;-75
2022/10/06 02:13:14;;;;;;;4.73;1.47;;;;;;;;;;5069832;28;20496;-75
2022/10/06 02:15:40;;;;;;;7.23;1.87;;;;;;;;;;5085428;28;20420;-76
2022/10/06 02:18:05;;;;;;;2.50;1.47;;;;;;;;;;5069287;28;20970;-75
2022/10/06 02:20:32;;;;;;;5.70;1.63;;;;;;;;;;5085556;28;20460;-74
2022/10/06 02:22:58;;;;;;;5.10;1.70;;;;;;;;;;5067322;28;20444;-75
2022/10/06 02:25:26;;;;;;;2.73;1.40;;;;;;;;;;5085373;28;20408;-75
2022/10/06 02:27:53;;;;;;;1.50;1.27;;;;;;;;;;5068860;28;20443;-76
2022/10/06 02:30:21;;;;;;;2.73;1.70;;;;;;;;;;5068805;28;20400;-75
2022/10/06 02:32:47;;;;;;;4.47;1.13;;;;;;;;;;5086911;28;20428;-75
2022/10/06 02:35:15;;;;;;;5.27;1.70;;;;;;;;;;5086974;28;20519;-74
2022/10/06 02:37:41;;;;;;;3.73;2.13;;;;;;;;;;5070033;28;20447;-75
2022/10/06 02:40:08;;;;;;;2.00;1.53;;;;;;;;;;5067008;28;20494;-74
2022/10/06 02:42:37;;;;;;;2.43;1.43;;;;;;;;;;5086085;28;20512;-75
2022/10/06 02:45:06;;;;;;;2.03;1.40;;;;;;;;;;5064556;28;20436;-75
2022/10/06 02:47:32;;;;;;;3.67;1.50;;;;;;;;;;5086850;28;20434;-76
2022/10/06 02:50:04;;;;;;;3.30;1.40;;;;;;;;;;5067594;28;20987;-75
2022/10/06 02:52:34;;;;;;;3.03;1.60;;;;;;;;;;5086382;28;20937;-77
2022/10/06 02:55:01;;;;;;;6.53;1.73;;;;;;;;;;5066857;28;21011;-76
2022/10/06 02:57:27;;;;;;;1.17;1.17;;;;;;;;;;5085692;28;20420;-75
2022/10/06 02:59:53;;;;;;;2.00;1.80;;;;;;;;;;5067662;28;20464;-75
2022/10/06 03:02:21;;;;;;;10.03;2.03;;;;;;;;;;5087722;28;20909;-75
2022/10/06 03:07:51;;;;;;;2.13;1.70;;;;;;;;;;5053480;28;20798;-75
2022/10/06 03:10:17;;;;;;;5.37;1.30;;;;;;;;;;5084790;28;20424;-74
2022/10/06 03:12:43;;;;;;;2.33;1.33;;;;;;;;;;5068848;28;20417;-75
2022/10/06 03:15:09;;;;;;;1.80;1.30;;;;;;;;;;5066364;28;20432;-75
2022/10/06 03:17:35;;;;;;;2.93;1.67;;;;;;;;;;5085902;28;20420;-76
2022/10/06 03:20:01;;;;;;;3.50;1.50;;;;;;;;;;5066518;28;20824;-74
2022/10/06 03:22:27;;;;;;;6.80;2.83;;;;;;;;;;5087438;28;20914;-74
2022/10/06 03:24:53;;;;;;;5.30;2.00;;;;;;;;;;5064979;28;20441;-75
2022/10/06 03:27:19;;;;;;;8.30;2.33;;;;;;;;;;5087227;28;20798;-75
2022/10/06 03:29:45;;;;;;;4.17;1.60;;;;;;;;;;5069143;28;20451;-75
2022/10/06 03:32:11;;;;;;;5.73;2.50;;;;;;;;;;5087161;28;20440;-75
2022/10/06 03:34:37;;;;;;;2.50;1.23;;;;;;;;;;5082707;28;20826;-74
2022/10/06 03:37:03;;;;;;;4.93;2.43;;;;;;;;;;5068360;28;20431;-74
2022/10/06 03:39:29;;;;;;;3.80;1.90;;;;;;;;;;5083187;28;20560;-74
2022/10/06 03:41:55;;;;;;;2.33;1.60;;;;;;;;;;5067329;28;20956;-76
2022/10/06 03:44:21;;;;;;;2.00;2.00;;;;;;;;;;5083008;28;20468;-75
2022/10/06 03:46:47;;;;;;;4.70;1.60;;;;;;;;;;5065300;28;20863;-75
2022/10/06 03:49:13;;;;;;;4.20;1.90;;;;;;;;;;5083494;28;20435;-74
2022/10/06 03:51:40;;;;;;;1.47;1.40;;;;;;;;;;5067673;28;20425;-74
2022/10/06 03:54:09;;;;;;;7.03;1.57;;;;;;;;;;5079144;28;20825;-75
2022/10/06 03:56:36;;;;;;;5.53;2.17;;;;;;;;;;5067451;28;20802;-75
2022/10/06 03:59:04;;;;;;;3.97;1.83;;;;;;;;;;5082664;28;20463;-74
2022/10/06 04:01:34;;;;;;;2.33;2.13;;;;;;;;;;5066927;28;20428;-76
2022/10/06 04:04:00;;;;;;;3.37;2.00;;;;;;;;;;5074609;28;20439;-75
2022/10/06 04:06:28;;;;;;;9.13;2.03;;;;;;;;;;5089676;28;20431;-75
2022/10/06 04:08:54;;;;;;;3.90;2.07;;;;;;;;;;5093030;28;20436;-76
2022/10/06 04:11:21;;;;;;;2.60;1.90;;;;;;;;;;5087337;28;20583;-75
2022/10/06 04:13:48;;;;;;;6.57;2.20;;;;;;;;;;5072729;28;20450;-75
2022/10/06 04:16:14;;;;;;;2.47;1.73;;;;;;;;;;5086580;28;20500;-76
2022/10/06 04:18:40;;;;;;;5.43;1.87;;;;;;;;;;5068041;28;21042;-75
2022/10/06 04:21:06;;;;;;;2.23;1.40;;;;;;;;;;5066742;28;20417;-75
2022/10/06 04:23:33;;;;;;;12.30;2.23;;;;;;;;;;5082372;28;20428;-74
2022/10/06 04:25:59;;;;;;;5.70;3.73;;;;;;;;;;5086742;28;20706;-75
2022/10/06 04:28:25;;;;;;;8.40;2.10;;;;;;;;;;5067277;28;21026;-75
2022/10/06 04:30:58;;;;;;;5.40;2.83;;;;;;;;;;5086955;28;20400;-75
2022/10/06 04:33:25;;;;;;;2.50;1.60;;;;;;;;;;5068259;28;20456;-77
2022/10/06 04:35:58;;;;;;;10.20;2.10;;;;;;;;;;5086906;28;20404;-77
2022/10/06 04:38:24;;;;;;;7.53;2.10;;;;;;;;;;5067016;28;20423;-77
2022/10/06 04:40:50;;;;;;;5.20;2.30;;;;;;;;;;5066097;28;20464;-77
2022/10/06 04:43:15;;;;;;;12.57;3.10;;;;;;;;;;5081732;28;20434;-76
2022/10/06 04:45:41;;;;;;;2.63;2.43;;;;;;;;;;5079037;28;20408;-76
2022/10/06 04:48:07;;;;;;;3.70;2.30;;;;;;;;;;5083095;28;20424;-77
2022/10/06 04:50:33;;;;;;;3.20;2.07;;;;;;;;;;5065127;28;20520;-77
2022/10/06 04:52:59;;;;;;;11.10;3.30;;;;;;;;;;5083329;28;20431;-74
2022/10/06 04:55:25;;;;;;;5.97;2.60;;;;;;;;;;5064209;28;20441;-74
2022/10/06 04:57:51;;;;;;;7.13;2.07;;;;;;;;;;5083862;28;20495;-74
2022/10/06 05:00:24;;;;;;;3.67;2.50;;;;;;;;;;5064472;28;20498;-75
2022/10/06 05:02:50;;;;;;;4.73;2.20;;;;;;;;;;5059180;28;20516;-73
2022/10/06 05:05:16;;;;;;;2.73;1.70;;;;;;;;;;5063717;28;20436;-74
2022/10/06 05:07:45;;;;;;;3.30;2.53;;;;;;;;;;5084227;28;21015;-75
2022/10/06 05:10:11;;;;;;;5.33;2.00;;;;;;;;;;5065750;28;20443;-75
2022/10/06 05:12:37;;;;;;;4.67;2.43;;;;;;;;;;5084962;28;20428;-74
2022/10/06 05:15:03;;;;;;;9.27;2.43;;;;;;;;;;5066225;28;20444;-74
2022/10/06 05:17:29;;;;;;;6.83;3.67;;;;;;;;;;5084715;28;20427;-75
2022/10/06 05:19:55;;;;;;;4.17;3.77;;;;;;;;;;5066083;28;20464;-75
2022/10/06 05:22:21;;;;;;;10.00;2.70;;;;;;;;;;5085195;28;20443;-74
2022/10/06 05:24:52;;;;;;;7.13;3.90;;;;;;;;;;5065130;28;20457;-74
2022/10/06 05:27:18;;;;;;;8.30;4.13;;;;;;;;;;5063993;28;20416;-74
2022/10/06 05:29:44;;;;;;;8.20;2.83;;;;;;;;;;5064232;28;20795;-75
2022/10/06 05:32:10;;;;;;;5.90;2.90;;;;;;;;;;5084121;28;20439;-74
2022/10/06 05:34:36;;;;;;;7.37;3.20;;;;;;;;;;5076008;28;20424;-75
2022/10/06 05:37:02;;;;;;;9.67;3.80;;;;;;;;;;5065640;28;20446;-75
2022/10/06 05:39:28;;;;;;;4.60;4.23;;;;;;;;;;5079142;28;21039;-74
2022/10/06 05:41:54;;;;;;;10.90;6.93;;;;;;;;;;5065882;28;20467;-74
2022/10/06 05:44:20;;;;;;;10.53;5.83;;;;;;;;;;5071566;28;20938;-74
2022/10/06 05:46:46;;;;;;;6.50;4.77;;;;;;;;;;5064694;28;20423;-74
2022/10/06 05:49:12;;;;;;;5.67;4.63;;;;;;;;;;5080108;28;20444;-74
2022/10/06 05:51:39;;;;;;;10.37;6.07;;;;;;;;;;5085288;28;20404;-75
2022/10/06 05:54:05;;;;;;;6.23;5.23;;;;;;;;;;5071193;28;20462;-74
2022/10/06 05:56:32;;;;;;;8.83;4.23;;;;;;;;;;5085325;28;20525;-75
2022/10/06 05:58:58;;;;;;;13.63;4.80;;;;;;;;;;5069312;28;20626;-75
2022/10/06 06:01:26;;;;;;;9.73;3.93;;;;;;;;;;5086438;28;20408;-75
2022/10/06 06:03:53;;;;;;;9.70;5.43;;;;;;;;;;5073100;28;20446;-75
2022/10/06 06:06:20;;;;;;;14.20;4.57;;;;;;;;;;5090596;28;20748;-74
2022/10/06 06:08:46;;;;;;;11.07;4.60;;;;;;;;;;5079690;28;20432;-74
2022/10/06 06:11:12;;;;;;;10.40;4.20;;;;;;;;;;5093152;28;20905;-75
2022/10/06 06:13:39;;;;;;;11.73;4.93;;;;;;;;;;5069102;28;20500;-74
2022/10/06 06:16:06;;;;;;;8.97;5.43;;;;;;;;;;5089164;28;20403;-74
2022/10/06 06:18:32;;;;;;;8.47;4.63;;;;;;;;;;5070025;28;20530;-74
2022/10/06 06:21:03;;;;;;;7.57;4.50;;;;;;;;;;5086609;28;20563;-75
2022/10/06 06:23:33;;;;;;;8.73;3.80;;;;;;;;;;5069625;28;20435;-75
2022/10/06 06:26:00;;;;;;;7.90;3.10;;;;;;;;;;5086959;28;20644;-75
2022/10/06 06:28:28;;;;;;;23.13;4.23;;;;;;;;;;5069337;28;21033;-75
2022/10/06 06:31:07;;;;;;;10.40;4.00;;;;;;;;;;5066749;28;20874;-75
2022/10/06 06:33:36;;;;;;;8.93;2.80;;;;;;;;;;5086788;28;20514;-75
2022/10/06 06:36:12;;;;;;;10.73;4.67;;;;;;;;;;5074572;28;20420;-76
2022/10/06 06:38:38;;;;;;;6.97;2.67;;;;;;;;;;5074599;28;20449;-75
2022/10/06 06:41:04;;;;;;;7.30;2.13;;;;;;;;;;5068481;28;21041;-76
2022/10/06 06:43:31;;;;;;;4.87;2.40;;;;;;;;;;5069434;28;21012;-76
2022/10/06 06:46:03;;;;;;;6.87;6.07;;;;;;;;;;5066366;28;20452;-74
2022/10/06 06:48:29;;;;;;;8.80;2.37;;;;;;;;;;4369104;28;10000714;-75
2022/10/06 06:50:58;;;;;;;3.10;2.20;;;;;;;;;;5063883;28;20202;-75
2022/10/06 06:53:24;;;;;;;5.27;2.40;;;;;;;;;;5070165;28;20515;-75
2022/10/06 06:55:50;;;;;;;4.00;1.73;;;;;;;;;;5062569;28;20483;-76
2022/10/06 06:58:17;;;;;;;4.30;1.80;;;;;;;;;;5062312;28;20518;-75
2022/10/06 07:00:43;;;;;;;7.77;2.70;;;;;;;;;;5061505;28;20480;-75
2022/10/06 07:03:13;;;;;;;4.67;1.77;;;;;;;;;;5067434;28;21002;-75
2022/10/06 07:05:39;;;;;;;8.83;3.10;;;;;;;;;;5066027;28;20535;-75
2022/10/06 07:08:09;;;;;;;5.53;2.47;;;;;;;;;;5069509;28;20995;-75
2022/10/06 07:10:36;;;;;;;7.93;2.43;;;;;;;;;;5089905;27;20977;-76
2022/10/06 07:13:02;;;;;;;5.47;1.80;;;;;;;;;;5072190;28;20440;-75
2022/10/06 07:26:37;;;;;;;12.63;2.53;;;;;;;;;;5064591;28;20988;-75
2022/10/06 07:29:03;;;;;;;6.90;2.20;;;;;;;;;;5066940;28;20439;-75
2022/10/06 07:31:32;;;;;;;6.60;2.70;;;;;;;;;;5064326;28;20409;-77
2022/10/06 07:34:05;;;;;;;3.23;2.40;;;;;;;;;;5070178;28;20432;-76
2022/10/06 07:36:31;;;;;;;7.50;2.00;;;;;;;;;;5066590;28;20401;-77
2022/10/06 07:38:57;;;;;;;4.40;2.40;;;;;;;;;;5073386;28;20592;-77
2022/10/06 07:41:23;;;;;;;5.20;1.90;;;;;;;;;;5066964;28;20871;-76
2022/10/06 07:43:52;;;;;;;5.73;3.13;;;;;;;;;;5084389;28;20447;-77
2022/10/06 07:46:18;;;;;;;6.00;2.67;;;;;;;;;;5065868;28;20409;-76
2022/10/06 07:48:46;;;;;;;7.10;2.77;;;;;;;;;;5087261;28;20496;-77
2022/10/06 07:51:13;;;;;;;4.90;2.40;;;;;;;;;;5074202;28;20461;-77
2022/10/06 07:53:39;;;;;;;5.50;2.40;;;;;;;;;;5067631;28;20498;-77
2022/10/06 07:56:06;;;;;;;7.00;2.20;;;;;;;;;;5066589;28;20444;-77
2022/10/06 07:58:37;;;;;;;3.90;2.70;;;;;;;;;;5085684;28;20481;-77
2022/10/06 08:01:07;;;;;;;2.40;1.90;;;;;;;;;;5066469;28;20476;-77
2022/10/06 08:03:36;;;;;;;6.07;2.40;;;;;;;;;;5099160;28;20447;-79
2022/10/06 08:06:02;;;;;;;5.70;2.40;;;;;;;;;;5085502;28;20855;-77
2022/10/06 08:08:35;;;;;;;8.03;2.23;;;;;;;;;;5087275;28;20431;-76
2022/10/06 08:11:02;;;;;;;4.10;2.23;;;;;;;;;;5045912;28;20930;-77
2022/10/06 08:13:31;;;;;;;8.87;4.07;;;;;;;;;;5118007;27;20800;-76
2022/10/06 08:16:02;;;;;;;5.50;2.47;;;;;;;;;;5059552;28;20444;-77
2022/10/06 08:18:28;;;;;;;3.60;2.10;;;;;;;;;;5071360;28;20447;-76
2022/10/06 08:20:54;;;;;;;6.80;2.00;;;;;;;;;;5064419;28;20460;-77
2022/10/06 08:23:21;;;;;;;2.63;1.60;;;;;;;;;;5065957;28;20448;-77
2022/10/06 08:25:51;;;;;;;7.13;2.20;;;;;;;;;;5067163;28;20495;-78
2022/10/06 08:28:19;;;;;;;3.27;1.50;;;;;;;;;;5085793;28;20433;-77
2022/10/06 08:30:54;;;;;;;2.00;1.90;;;;;;;;;;5081734;28;20817;-77
2022/10/06 08:33:20;;;;;;;3.00;2.20;;;;;;;;;;5066397;28;20416;-77
2022/10/06 08:35:46;;;;;;;6.97;2.10;;;;;;;;;;5081540;28;20481;-78
2022/10/06 08:38:13;;;;;;;3.70;2.17;;;;;;;;;;5066163;28;20424;-78
2022/10/06 08:40:41;;;;;;;5.90;2.20;;;;;;;;;;5068338;28;20992;-77
2022/10/06 08:43:13;;;;;;;3.30;2.03;;;;;;;;;;5086233;28;20485;-77
2022/10/06 08:45:42;;;;;;;4.10;2.37;;;;;;;;;;5061538;28;20444;-78
2022/10/06 08:48:13;;;;;;;7.40;2.43;;;;;;;;;;5083538;28;21016;-77
2022/10/06 08:50:47;;;;;;;9.70;2.77;;;;;;;;;;5066706;28;20855;-77
2022/10/06 08:53:25;;;;;;;6.80;2.20;;;;;;;;;;5054826;28;20515;-78
2022/10/06 08:56:00;;;;;;;5.27;2.57;;;;;;;;;;4372416;27;10000731;-78
2022/10/06 08:58:49;;;;;;;7.30;2.40;;;;;;;;;;5047798;28;20365;-77
2022/10/06 09:01:22;;;;;;;3.77;2.00;;;;;;;;;;5052731;28;20469;-76
2022/10/06 09:03:50;;;;;;;3.70;2.13;;;;;;;;;;5056051;28;20932;-76
2022/10/06 09:06:20;;;;;;;6.70;3.63;;;;;;;;;;5061043;28;20432;-76
2022/10/06 09:08:56;;;;;;;2.07;1.90;;;;;;;;;;5058907;28;20512;-77
2022/10/06 09:11:22;;;;;;;6.57;3.10;;;;;;;;;;5061473;28;20531;-77
2022/10/06 09:13:57;;;;;;;4.77;2.37;;;;;;;;;;5086260;28;21035;-75
2022/10/06 09:16:28;;;;;;;11.00;3.10;;;;;;;;;;5063080;28;20521;-75
2022/10/06 09:19:01;;;;;;;4.13;2.73;;;;;;;;;;5073309;28;20436;-74
2022/10/06 09:21:30;;;;;;;8.90;3.00;;;;;;;;;;5063658;28;20479;-75
2022/10/06 09:24:02;;;;;;;4.30;2.43;;;;;;;;;;5074824;28;20961;-75
2022/10/06 09:26:32;;;;;;;3.97;2.30;;;;;;;;;;5062440;28;20792;-75
2022/10/06 09:28:58;;;;;;;6.80;2.63;;;;;;;;;;5083104;28;20501;-75
2022/10/06 09:31:25;;;;;;;2.73;1.80;;;;;;;;;;5063987;28;20436;-75
2022/10/06 09:33:58;;;;;;;5.30;1.73;;;;;;;;;;4721023;28;9999933;-74
2022/10/06 09:36:24;;;;;;;4.60;2.30;;;;;;;;;;5061607;28;20490;-76
2022/10/06 09:38:58;;;;;;;2.73;2.23;;;;;;;;;;5066035;28;21039;-76
2022/10/06 09:41:24;;;;;;;4.00;2.67;;;;;;;;;;5058156;28;20831;-75
2022/10/06 09:43:56;;;;;;;6.23;2.90;;;;;;;;;;5065139;28;20440;-74
2022/10/06 09:46:30;;;;;;;3.63;2.30;;;;;;;;;;5050865;28;20443;-75
2022/10/06 09:49:06;;;;;;;3.10;2.90;;;;;;;;;;5067549;28;20532;-74
2022/10/06 09:51:35;;;;;;;2.67;1.73;;;;;;;;;;5061900;28;20444;-76
2022/10/06 09:54:10;;;;;;;4.40;1.60;;;;;;;;;;5067512;28;20440;-76
2022/10/06 09:56:39;;;;;;;4.90;2.23;;;;;;;;;;5064422;28;20798;-74
2022/10/06 09:59:14;;;;;;;1.80;1.47;;;;;;;;;;5067375;28;20666;-75
2022/10/06 10:01:40;;;;;;;10.10;4.57;;;;;;;;;;5072911;28;20439;-75
2022/10/06 10:04:11;;;;;;;4.60;2.40;;;;;;;;;;5098918;28;20434;-76
2022/10/06 10:06:37;;;;;;;8.60;2.50;;;;;;;;;;5064976;28;20949;-75
2022/10/06 10:09:18;;;;;;;6.13;1.80;;;;;;;;;;5082887;28;20477;-76
2022/10/06 10:14:36;;;;;;;2.27;2.07;;;;;;;;;;5051616;28;20740;-75
2022/10/06 10:17:17;;;;;;;3.03;2.10;;;;;;;;;;5085090;28;20412;-76
2022/10/06 10:19:46;;;;;;;3.57;2.27;;;;;;;;;;5066462;28;20470;-75
2022/10/06 10:22:21;;;;;;;4.83;1.97;;;;;;;;;;5064734;28;20429;-75
2022/10/06 10:25:07;;;;;;;6.20;1.80;;;;;;;;;;5055734;28;20443;-76
2022/10/06 10:27:54;;;;;;;5.93;2.30;;;;;;;;;;5085383;28;20807;-75
2022/10/06 10:30:22;;;;;;;3.83;2.00;;;;;;;;;;5052124;28;20459;-76
2022/10/06 10:32:50;;;;;;;4.37;2.00;;;;;;;;;;5082761;28;20427;-75
2022/10/06 10:35:25;;;;;;;2.40;1.83;;;;;;;;;;5072117;28;20532;-76
2022/10/06 10:38:11;;;;;;;9.80;2.60;;;;;;;;;;5064893;28;20424;-76
2022/10/06 10:40:47;;;;;;;4.87;1.63;;;;;;;;;;5068487;28;20594;-73
2022/10/06 10:43:33;;;;;;;3.70;1.70;;;;;;;;;;5063158;28;20854;-75
2022/10/06 10:46:02;;;;;;;2.33;1.50;;;;;;;;;;5079175;28;20648;-74
2022/10/06 10:48:32;;;;;;;4.50;1.67;;;;;;;;;;5067257;28;20801;-75
2022/10/06 10:51:21;;;;;;;1.97;1.77;;;;;;;;;;5068390;28;20698;-74
2022/10/06 10:53:52;;;;;;;3.83;1.80;;;;;;;;;;5040252;28;20437;-75
2022/10/06 10:56:20;;;;;;;3.63;2.30;;;;;;;;;;5068677;28;20577;-75
2022/10/06 10:59:06;;;;;;;4.93;2.50;;;;;;;;;;5087636;28;20439;-76
2022/10/06 11:01:45;;;;;;;2.20;1.47;;;;;;;;;;5064651;28;20510;-74
2022/10/06 11:04:12;;;;;;;3.90;2.37;;;;;;;;;;4719643;28;9999759;-77
2022/10/06 11:06:53;;;;;;;2.17;1.37;;;;;;;;;;5062951;28;20262;-74
2022/10/06 11:09:25;;;;;;;3.40;2.23;;;;;;;;;;5056958;28;20945;-75
2022/10/06 11:12:10;;;;;;;7.40;2.37;;;;;;;;;;5062624;28;20818;-75
2022/10/06 11:14:42;;;;;;;3.10;1.40;;;;;;;;;;5058932;28;20451;-75
2022/10/06 11:17:14;;;;;;;3.50;1.50;;;;;;;;;;5064624;28;20425;-75
2022/10/06 11:20:07;;;;;;;4.97;1.93;;;;;;;;;;5067834;28;20468;-77
2022/10/06 11:22:33;;;;;;;6.43;2.23;;;;;;;;;;5037392;28;20950;-79
2022/10/06 11:25:03;;;;;;;3.13;2.00;;;;;;;;;;5104467;27;20436;-80
2022/10/06 11:27:29;;;;;;;6.57;2.13;;;;;;;;;;5065847;28;20432;-79
2022/10/06 11:30:14;;;;;;;1.43;1.40;;;;;;;;;;5073478;28;20448;-79
2022/10/06 11:32:46;;;;;;;2.63;1.37;;;;;;;;;;5065806;28;20417;-79
2022/10/06 11:35:23;;;;;;;1.70;1.20;;;;;;;;;;5076504;28;20786;-79
2022/10/06 11:37:55;;;;;;;1.77;1.63;;;;;;;;;;5074049;28;20432;-79
2022/10/06 11:40:40;;;;;;;2.53;1.47;;;;;;;;;;5077479;28;20472;-78
2022/10/06 11:43:18;;;;;;;3.33;1.80;;;;;;;;;;5087076;28;20416;-78
2022/10/06 11:45:51;;;;;;;4.83;2.00;;;;;;;;;;5074170;28;20519;-78
2022/10/06 11:48:20;;;;;;;2.10;1.63;;;;;;;;;;5065259;28;20965;-78
2022/10/06 11:50:50;;;;;;;3.30;1.40;;;;;;;;;;5083149;28;20432;-79
2022/10/06 11:53:35;;;;;;;1.50;1.40;;;;;;;;;;5066497;28;20479;-79
2022/10/06 11:56:17;;;;;;;2.00;1.60;;;;;;;;;;5083110;28;20447;-80
2022/10/06 11:58:55;;;;;;;1.83;1.27;;;;;;;;;;5068102;28;20518;-78
2022/10/06 12:01:27;;;;;;;1.10;1.10;;;;;;;;;;5085173;28;20467;-80
2022/10/06 12:04:08;;;;;;;1.37;1.27;;;;;;;;;;5071655;28;20429;-78
2022/10/06 12:06:44;;;;;;;1.70;1.27;;;;;;;;;;5078907;28;20464;-79
2022/10/06 12:09:31;;;;;;;1.73;1.27;;;;;;;;;;5096906;28;20890;-78
2022/10/06 12:12:02;;;;;;;4.87;1.90;;;;;;;;;;5046995;28;20402;-79
2022/10/06 12:14:38;;;;;;;2.20;1.40;;;;;;;;;;5084068;28;20431;-78
2022/10/06 12:17:12;;;;;;;1.53;1.00;;;;;;;;;;5064681;28;20424;-79
2022/10/06 12:19:58;;;;;;;1.20;0.90;;;;;;;;;;5082077;28;20459;-79
2022/10/06 12:22:26;;;;;;;1.40;1.33;;;;;;;;;;5066263;28;20456;-79
2022/10/06 12:24:55;;;;;;;2.13;1.10;;;;;;;;;;5072092;28;20524;-78
2022/10/06 12:27:21;;;;;;;1.80;1.70;;;;;;;;;;5068180;28;20429;-77
2022/10/06 12:30:10;;;;;;;3.97;1.80;;;;;;;;;;5083955;28;20434;-78
2022/10/06 12:32:47;;;;;;;1.03;1.00;;;;;;;;;;5065036;28;20413;-77
2022/10/06 12:35:13;;;;;;;1.30;1.20;;;;;;;;;;5070381;28;20546;-79
2022/10/06 12:37:43;;;;;;;1.90;1.20;;;;;;;;;;5074090;28;20444;-78
2022/10/06 12:40:27;;;;;;;3.30;2.27;;;;;;;;;;5080012;28;20467;-77
2022/10/06 12:43:09;;;;;;;1.30;1.20;;;;;;;;;;5082812;28;20855;-77
2022/10/06 12:45:35;;;;;;;2.60;0.83;;;;;;;;;;5058657;28;20809;-78
2022/10/06 12:48:02;;;;;;;1.97;0.90;;;;;;;;;;5085978;28;20494;-77
2022/10/06 12:50:29;;;;;;;0.73;0.63;;;;;;;;;;4367869;28;10022477;-77
2022/10/06 12:53:04;;;;;;;1.87;1.10;;;;;;;;;;5061069;28;20593;-77
2022/10/06 12:55:31;;;;;;;2.83;1.30;;;;;;;;;;5066212;28;20523;-77
2022/10/06 12:57:58;;;;;;;2.20;1.13;;;;;;;;;;5062764;28;20740;-77
2022/10/06 13:00:24;;;;;;;2.60;1.43;;;;;;;;;;5065599;28;20843;-79
2022/10/06 13:02:52;;;;;;;2.73;1.30;;;;;;;;;;5075057;28;20432;-79
2022/10/06 13:05:19;;;;;;;2.43;1.30;;;;;;;;;;5067795;28;21095;-78
2022/10/06 13:08:01;;;;;;;1.60;1.30;;;;;;;;;;5063661;28;21089;-78
2022/10/06 13:10:28;;;;;;;1.67;1.60;;;;;;;;;;5063268;28;20440;-78
2022/10/06 13:12:56;;;;;;;7.00;1.70;;;;;;;;;;5076367;28;20421;-78
2022/10/06 13:15:28;;;;;;;1.47;1.13;;;;;;;;;;5068316;28;20435;-77
2022/10/06 13:18:11;;;;;;;1.37;1.27;;;;;;;;;;5085462;28;20458;-77
2022/10/06 13:20:43;;;;;;;2.20;1.10;;;;;;;;;;5063868;28;20533;-77
2022/10/06 13:23:21;;;;;;;1.23;1.03;;;;;;;;;;5083725;28;20506;-76
2022/10/06 13:25:49;;;;;;;1.60;1.23;;;;;;;;;;5070855;28;20435;-77
2022/10/06 13:28:33;;;;;;;1.00;1.00;;;;;;;;;;5084989;28;20400;-77
2022/10/06 13:31:00;;;;;;;3.53;1.27;;;;;;;;;;5074211;28;20435;-74
2022/10/06 13:33:28;;;;;;;2.17;1.87;;;;;;;;;;5065089;28;20494;-76
2022/10/06 13:35:55;;;;;;;2.70;1.30;;;;;;;;;;5075327;28;20438;-77
2022/10/06 13:38:21;;;;;;;2.17;1.33;;;;;;;;;;5085197;28;20465;-77
2022/10/06 13:41:04;;;;;;;3.30;1.03;;;;;;;;;;5080788;28;20520;-78
2022/10/06 13:43:30;;;;;;;2.30;1.27;;;;;;;;;;5064974;28;21065;-75
2022/10/06 13:45:56;;;;;;;2.00;1.90;;;;;;;;;;5068346;28;20535;-76
2022/10/06 13:48:24;;;;;;;2.20;2.10;;;;;;;;;;5065112;28;20488;-77
2022/10/06 13:50:54;;;;;;;2.10;2.10;;;;;;;;;;5079803;28;20454;-78
2022/10/06 13:53:30;;;;;;;1.77;1.53;;;;;;;;;;5084949;28;20902;-77
2022/10/06 13:55:57;;;;;;;2.37;1.10;;;;;;;;;;5056582;28;20432;-77
2022/10/06 13:58:27;;;;;;;1.17;1.17;;;;;;;;;;5064762;28;20455;-77
2022/10/06 14:00:56;;;;;;;2.90;1.50;;;;;;;;;;5079263;28;20468;-77
2022/10/06 14:03:23;;;;;;;2.10;1.73;;;;;;;;;;5084985;28;20492;-74
2022/10/06 14:05:50;;;;;;;2.50;1.50;;;;;;;;;;5070850;28;20458;-74
2022/10/06 14:08:26;;;;;;;5.03;1.30;;;;;;;;;;5084738;28;20415;-74
2022/10/06 14:10:54;;;;;;;1.40;1.30;;;;;;;;;;5071558;28;20496;-74
2022/10/06 14:13:20;;;;;;;3.63;2.00;;;;;;;;;;5083153;28;20447;-73
2022/10/06 14:15:46;;;;;;;2.23;1.27;;;;;;;;;;5061432;28;20464;-75
2022/10/06 14:18:18;;;;;;;2.20;1.17;;;;;;;;;;5083647;28;20452;-75
2022/10/06 14:20:45;;;;;;;3.10;1.50;;;;;;;;;;5068462;28;20784;-74
2022/10/06 14:23:30;;;;;;;0.93;0.93;;;;;;;;;;5087290;28;20903;-74
2022/10/06 14:25:56;;;;;;;3.77;1.50;;;;;;;;;;5064314;28;20604;-76
2022/10/06 14:28:22;;;;;;;2.17;1.53;;;;;;;;;;5086734;28;20538;-74
2022/10/06 14:30:48;;;;;;;3.03;2.73;;;;;;;;;;5068664;28;20431;-74
2022/10/06 14:33:15;;;;;;;1.30;1.20;;;;;;;;;;5067890;28;20401;-74
2022/10/06 14:35:42;;;;;;;2.60;1.67;;;;;;;;;;5079790;28;20743;-74
2022/10/06 14:38:08;;;;;;;4.20;2.60;;;;;;;;;;5066844;28;20799;-74
2022/10/06 14:40:34;;;;;;;1.40;1.17;;;;;;;;;;5067468;28;20479;-75
2022/10/06 14:43:00;;;;;;;8.60;1.73;;;;;;;;;;5088260;28;20912;-74
2022/10/06 14:45:26;;;;;;;4.10;1.80;;;;;;;;;;5060517;28;20517;-74
2022/10/06 14:47:52;;;;;;;1.80;1.60;;;;;;;;;;5067790;28;20485;-75
2022/10/06 14:50:18;;;;;;;3.83;1.37;;;;;;;;;;5079352;28;20432;-73
2022/10/06 14:52:43;;;;;;;2.63;1.30;;;;;;;;;;5067377;28;20535;-74
2022/10/06 14:55:09;;;;;;;4.00;2.17;;;;;;;;;;5082192;28;20425;-74
2022/10/06 14:57:35;;;;;;;2.23;1.90;;;;;;;;;;5066365;28;20450;-73
2022/10/06 15:00:09;;;;;;;3.70;1.60;;;;;;;;;;5083249;28;20554;-75
2022/10/06 15:02:35;;;;;;;1.73;1.60;;;;;;;;;;5067449;28;20444;-74
2022/10/06 15:05:01;;;;;;;5.83;2.13;;;;;;;;;;5085267;28;21181;-73
2022/10/06 15:10:12;;;;;;;3.03;1.70;;;;;;;;;;5049139;28;20762;-74
2022/10/06 15:12:39;;;;;;;3.10;1.23;;;;;;;;;;5066687;28;20428;-73